Latest Coastal Weather Observations for Taree Airport

IDN60701

Issued at 7:11 am EST Monday 20 April 2015 (issued every 10 minutes, with the page automatically refreshed every 10 minutes)

About coastal observations | Map of coastal stations | Coastal observations for NSW | Marine services | Other Formats
Station Details ID: 060141 Name: TAREE AIRPORT AWS Lat: -31.89 Lon: 152.51 Height: 8.0 m
Data from the previous 72 hours. | See also: Recent months at Taree Airport
Date/Time
EST
Temp

°C
Wind Pressure Rain
since 9am
mm
Weather Cloud Vis
km
Sea
Height
m
Swell
Dir
 
Speed
knots
Gust
knots
hPa Trend Height
m
Period
s
Dir
20/07:00am 15.3 W 7 10 1020.6 - 1.2 - Partly cloudy 10 - - - -
20/06:30am 15.3 W 7 10 1020.5 - 1.2 - Partly cloudy 10 - - - -
20/06:00am 15.5 W 8 10 1020.5 - 1.2 Showers Cloudy 10 - - - -
20/05:30am 16.1 W 9 14 1020.4 - 1.2 - Cloudy 10 - - - -
20/05:00am 16.6 WSW 10 17 1020.5 - 1.2 - Partly cloudy 10 - - - -
20/04:30am 16.3 WSW 7 10 1020.4 - 1.2 - Partly cloudy 10 - - - -
20/04:00am 16.8 WSW 9 13 1020.2 - 1.2 - Partly cloudy 10 - - - -
20/03:30am 17.0 WSW 8 11 1020.3 - 1.2 - Partly cloudy 10 - - - -
20/03:00am 17.2 WSW 7 10 1020.2 - 1.2 - Cloudy 10 - - - -
20/02:30am 17.3 SW 8 12 1020.3 - 1.2 - Partly cloudy 10 - - - -
20/02:00am 17.5 SW 9 13 1020.2 - 1.2 - Partly cloudy 10 - - - -
20/01:30am 17.5 SW 10 15 1020.7 - 1.2 - Partly cloudy 10 - - - -
20/01:00am 17.5 SW 9 14 1020.9 - 1.2 - Partly cloudy 10 - - - -
20/12:30am 17.5 SW 10 15 1021.0 - 1.2 - Partly cloudy 10 - - - -
20/12:00am 17.5 SW 9 12 1021.0 - 1.2 - Cloudy 10 - - - -
 
Date/Time
EST
Temp

°C
Wind Pressure Rain
since 9am
mm
Weather Cloud Vis
km
Sea
Height
m
Swell
Dir
 
Speed
knots
Gust
knots
hPa Trend Height
m
Period
s
Dir
19/11:30pm 17.4 SW 9 13 1021.4 - 1.2 - Partly cloudy 10 - - - -
19/11:00pm 17.3 SW 8 12 1021.5 - 1.2 - Partly cloudy 10 - - - -
19/10:30pm 17.5 WSW 6 9 1021.8 - 1.2 - Partly cloudy 10 - - - -
19/10:00pm 17.5 SW 8 14 1021.8 - 1.2 - Partly cloudy 10 - - - -
19/09:30pm 17.2 W 5 8 1021.7 - 1.2 - Partly cloudy 10 - - - -
19/09:00pm 16.9 W 5 6 1021.4 - 1.0 Showers Cloudy 10 - - - -
19/08:30pm 16.8 W 6 8 1021.1 - 1.0 - Partly cloudy 10 - - - -
19/08:00pm 17.0 W 6 8 1021.0 - 1.0 - Partly cloudy 10 - - - -
19/07:30pm 17.1 W 6 8 1020.6 - 0.8 - Partly cloudy 10 - - - -
19/07:00pm 16.6 WNW 7 9 1020.3 - 0.6 - Cloudy 10 - - - -
19/06:30pm 17.6 WNW 7 9 1019.9 - 0.4 - Partly cloudy 10 - - - -
19/06:00pm 19.0 W 8 10 1019.5 - 0.4 - Cloudy 10 - - - -
19/05:30pm 19.5 SW 8 10 1019.0 - 0.4 - Partly cloudy 10 - - - -
19/05:00pm 19.7 SSW 6 8 1018.7 - 0.4 - Partly cloudy 10 - - - -
19/04:30pm 20.4 S 7 10 1018.2 - 0.4 - Partly cloudy 10 - - - -
19/04:00pm 21.3 S 8 11 1017.7 - 0.4 - Cloudy 10 - - - -
19/03:30pm 21.6 SSW 6 8 1017.3 - 0.4 - Partly cloudy 10 - - - -
19/03:00pm 22.0 S 6 8 1017.3 - 0.4 - Partly cloudy 10 - - - -
19/02:30pm 22.0 S 5 6 1017.1 - 0.4 - Cloudy 10 - - - -
19/02:00pm 22.1 S 5 7 1016.9 - 0.4 - Partly cloudy 10 - - - -
19/01:30pm 22.1 SSW 7 10 1017.1 - 0.4 - Partly cloudy 10 - - - -
19/01:00pm 22.8 SW 7 13 1017.0 - 0.4 - Partly cloudy 10 - - - -
19/12:30pm 23.4 NW 5 6 1017.3 - 0.4 - Partly cloudy 10 - - - -
19/12:00pm 21.9 W 5 7 1017.6 - 0.4 - - 10 - - - -
19/11:30am 20.7 WSW 5 7 1018.0 - 0.4 - - 10 - - - -
19/11:00am 20.3 W 3 5 1017.9 - 0.4 - - 10 - - - -
19/10:30am 19.8 NW 5 6 1018.3 - 0.4 - Partly cloudy 10 - - - -
19/10:00am 19.6 NW 5 6 1018.4 - 0.4 - Partly cloudy 10 - - - -
19/09:30am 19.2 SW 5 7 1018.1 - 0.2 - Partly cloudy 10 - - - -
19/09:00am 19.2 WSW 6 8 1018.1 - 9.8 Showers Cloudy 10 - - - -
19/08:30am 19.1 SW 5 7 1017.6 - 9.8 - Partly cloudy 10 - - - -
19/08:00am 18.8 CALM 0 1 1017.1 - 9.8 - Partly cloudy 10 - - - -
19/07:30am 18.6 W 2 5 1016.9 - 9.8 - Partly cloudy 10 - - - -
19/07:00am 18.4 CALM 0 0 1016.3 - 9.8 - Partly cloudy 10 - - - -
19/06:30am 18.2 NW 4 4 1016.0 - 9.6 - Partly cloudy 10 - - - -
19/06:00am 18.2 N 4 6 1015.8 - 9.6 Rain Mostly cloudy 10 - - - -
19/05:30am 18.3 N 4 5 1015.8 - 8.8 - Partly cloudy 10 - - - -
19/05:05am 18.4 SW 2 6 1015.8 - 7.8 - Partly cloudy 10 - - - -
19/05:00am 18.4 SSW 2 5 1015.5 - 7.8 - Partly cloudy 10 - - - -
19/04:30am 19.0 SW 9 11 1015.7 - 3.0 - Partly cloudy 0.2 - - - -
19/04:23am 19.2 SW 7 10 1015.4 - 2.4 - Partly cloudy 3 - - - -
19/04:00am 19.4 S 6 7 1015.0 - 1.2 - Partly cloudy 10 - - - -
19/03:30am 19.2 SW 5 6 1014.9 - 0.2 - Partly cloudy 10 - - - -
19/03:00am 19.1 SW 4 6 1014.5 - 0.0 Recent precip. Mostly cloudy 10 - - - -
19/02:30am 19.2 SE 2 4 1014.6 - 0.0 - Partly cloudy 10 - - - -
19/02:00am 19.2 SW 4 6 1014.7 - 0.0 - Partly cloudy 10 - - - -
19/01:30am 19.3 SW 4 6 1015.5 - 0.0 - Partly cloudy 10 - - - -
19/01:00am 20.1 NNE 3 4 1015.5 - 0.0 - Partly cloudy 10 - - - -
19/12:30am 19.7 NNE 4 5 1015.7 - 0.0 - Partly cloudy 10 - - - -
19/12:00am 19.3 NNE 2 5 1015.8 - 0.0 - Mostly clear 10 - - - -
 
Date/Time
EST
Temp

°C
Wind Pressure Rain
since 9am
mm
Weather Cloud Vis
km
Sea
Height
m
Swell
Dir
 
Speed
knots
Gust
knots
hPa Trend Height
m
Period
s
Dir
18/11:30pm 19.8 NNE 2 4 1016.0 - 0.0 - - 10 - - - -
18/11:00pm 19.8 NNE 1 4 1016.0 - 0.0 - - 10 - - - -
18/10:30pm 20.3 CALM 0 3 1016.4 - 0.0 - - 10 - - - -
18/10:00pm 20.6 NNE 4 6 1016.3 - 0.0 - - 10 - - - -
18/09:30pm 20.2 N 3 5 1016.8 - 0.0 - - 10 - - - -
18/09:00pm 20.8 NNE 2 3 1016.8 - 0.0 - - 10 - - - -
18/08:30pm 20.3 NE 4 5 1016.6 - 0.0 - - 10 - - - -
18/08:00pm 20.5 ENE 3 3 1016.5 - 0.0 - - 10 - - - -
18/07:30pm 21.6 NNE 1 4 1016.3 - 0.0 - - 10 - - - -
18/07:00pm 22.5 NNE 5 8 1016.1 - 0.0 - - 10 - - - -
18/06:30pm 22.4 NNE 5 7 1016.0 - 0.0 - - 10 - - - -
18/06:00pm 22.3 NE 5 8 1015.8 - 0.0 - - 10 - - - -
18/05:30pm 23.1 NNE 5 7 1015.7 - 0.0 - - 10 - - - -
18/05:00pm 23.7 NNE 6 9 1015.6 - 0.0 - - 10 - - - -
18/04:30pm 24.4 NE 7 10 1015.5 - 0.0 - - 10 - - - -
18/04:00pm 25.2 NNE 7 12 1015.6 - 0.0 - - 10 - - - -
18/03:30pm 25.7 NNE 8 13 1015.9 - 0.0 - - 10 - - - -
18/03:00pm 26.7 NNE 8 13 1016.0 - 0.0 - - 10 - - - -
18/02:30pm 26.4 NNE 7 12 1016.2 - 0.0 - - 10 - - - -
18/02:00pm 26.6 NNE 10 15 1016.1 - 0.0 - - 10 - - - -
18/01:30pm 27.3 NE 10 15 1016.2 - 0.0 - - 10 - - - -
18/01:00pm 26.9 NE 9 14 1016.7 - 0.0 - - 10 - - - -
18/12:30pm 26.8 NNE 7 11 1017.2 - 0.0 - - 10 - - - -
18/12:00pm 26.4 NE 6 10 1017.8 - 0.0 - - 10 - - - -
18/11:30am 26.3 NNE 6 10 1018.4 - 0.0 - - 10 - - - -
18/11:00am 25.5 NNE 5 8 1019.3 - 0.0 - - 10 - - - -
18/10:30am 25.0 NNE 6 9 1019.6 - 0.0 - - 10 - - - -
18/10:00am 24.5 ENE 5 8 1019.9 - 0.0 - - 10 - - - -
18/09:30am 23.5 NE 5 6 1020.3 - 0.0 - - 10 - - - -
18/09:00am 22.0 ENE 2 5 1020.5 - 0.4 - - 10 - - - -
18/08:30am 19.7 CALM 0 0 1020.8 - 0.4 - - 10 - - - -
18/08:00am 17.9 WSW 3 5 1020.9 - 0.4 - - 10 - - - -
18/07:30am 17.0 CALM 0 2 1020.7 - 0.4 - - 10 - - - -
18/07:00am 16.1 W 3 5 1020.4 - 0.4 - - 10 - - - -
18/06:30am 15.2 CALM 0 4 1020.3 - 0.4 - - 10 - - - -
18/06:00am 15.7 W 5 7 1020.0 - 0.2 - - 10 - - - -
18/05:30am 16.3 NNE 2 5 1019.5 - 0.2 - - 10 - - - -
18/05:00am 16.7 CALM 0 1 1019.4 - 0.2 - - 10 - - - -
18/04:30am 18.0 NNE 4 5 1019.4 - 0.2 - - 10 - - - -
18/04:00am 18.4 NE 7 10 1019.1 - 0.2 - - 10 - - - -
18/03:30am 17.8 NE 5 6 1018.9 - 0.2 - - 10 - - - -
18/03:00am 17.9 ENE 1 4 1019.1 - 0.2 - - 10 - - - -
18/02:38am 17.9 NE 1 4 1019.3 - 0.2 - - 10 - - - -
18/02:30am 17.4 NE 4 7 1019.4 - 0.2 - - 10 - - - -
18/02:26am 18.0 NE 4 7 1019.3 - 0.2 - - 2 - - - -
18/02:15am 17.4 NE 1 4 1019.5 - 0.2 - Partly cloudy 0.7 - - - -
18/02:14am 17.3 CALM 0 4 1019.5 - 0.2 - - 2 - - - -
18/02:09am 17.5 CALM 0 0 1019.8 - 0.2 - - 10 - - - -
18/02:00am 18.2 CALM 0 0 1019.8 - 0.2 - - 6 - - - -
18/01:51am 17.8 CALM 0 3 1019.9 - 0.2 - - 4 - - - -
18/01:39am 17.3 NE 2 5 1019.9 - 0.2 - - 9 - - - -
18/01:30am 17.9 CALM 0 0 1020.1 - 0.2 - - 8 - - - -
18/01:14am 17.9 CALM 0 0 1020.2 - 0.2 - - 4 - - - -
18/01:00am 18.7 CALM 0 0 1020.4 - 0.2 - - 10 - - - -
18/12:30am 19.1 CALM 0 0 1020.7 - 0.2 - - 10 - - - -
18/12:00am 19.1 NE 5 6 1020.6 - 0.2 - - 10 - - - -
 
Date/Time
EST
Temp

°C
Wind Pressure Rain
since 9am
mm
Weather Cloud Vis
km
Sea
Height
m
Swell
Dir
 
Speed
knots
Gust
knots
hPa Trend Height
m
Period
s
Dir
17/11:30pm 19.1 NNE 1 5 1020.8 - 0.2 - - 10 - - - -
17/11:03pm 18.3 NE 1 4 1020.9 - 0.2 - Partly cloudy 10 - - - -
17/11:01pm 18.0 NE 1 4 1020.9 - 0.2 - Partly cloudy 10 - - - -
17/11:00pm 18.0 NE 1 4 1020.9 - 0.2 - Partly cloudy 10 - - - -
17/10:53pm 17.8 NNE 1 4 1021.0 - 0.2 - Partly cloudy 5 - - - -
17/10:36pm 18.6 CALM 0 2 1021.1 - 0.2 - Partly cloudy 0.2 - - - -
17/10:30pm 18.8 CALM 0 0 1021.1 - 0.2 - Partly cloudy 0.4 - - - -
17/10:12pm 18.5 NNW 3 4 1021.2 - 0.2 - - 0.9 - - - -
17/10:00pm 18.7 CALM 0 0 1021.2 - 0.2 - - 7 - - - -
17/09:31pm 19.4 CALM 0 0 1021.4 - 0.2 - - 5 - - - -
17/09:30pm 19.5 CALM 0 0 1021.4 - 0.2 - - 6 - - - -
17/09:14pm 19.7 NE 3 5 1021.2 - 0.2 - - 6 - - - -
17/09:00pm 19.6 CALM 0 0 1021.3 - 0.2 - - 2 - - - -
17/08:53pm 19.4 CALM 0 0 1021.3 - 0.2 - - 5 - - - -
17/08:30pm 20.0 CALM 0 0 1021.4 - 0.2 - - 10 - - - -
17/08:00pm 20.3 CALM 0 0 1021.3 - 0.2 - - 10 - - - -
17/07:30pm 20.8 CALM 0 0 1021.1 - 0.2 - - 10 - - - -
17/07:00pm 21.0 ENE 3 4 1021.0 - 0.2 - - 10 - - - -
17/06:30pm 21.4 NE 4 5 1020.8 - 0.2 - - 10 - - - -
17/06:00pm 21.9 NE 5 5 1020.5 - 0.2 - - 10 - - - -
17/05:30pm 22.7 ENE 5 6 1020.3 - 0.2 - - 10 - - - -
17/05:00pm 23.7 E 6 8 1020.1 - 0.2 - - 10 - - - -
17/04:30pm 24.4 ENE 7 10 1020.0 - 0.2 - Partly cloudy 10 - - - -
17/04:00pm 25.3 E 7 10 1019.9 - 0.2 - - 10 - - - -
17/03:30pm 25.7 E 7 10 1019.9 - 0.2 - Partly cloudy 10 - - - -
17/03:00pm 26.3 SE 7 10 1019.8 - 0.2 - Partly cloudy 10 - - - -
17/02:30pm 26.6 ESE 6 8 1020.0 - 0.2 - Partly cloudy 10 - - - -
17/02:00pm 27.8 N 1 4 1020.0 - 0.2 - - 10 - - - -
17/01:30pm 27.5 W 3 4 1020.4 - 0.2 - Partly cloudy 10 - - - -
17/01:00pm 27.0 SSW 1 5 1020.8 - 0.2 - - 10 - - - -
17/12:30pm 26.6 SW 4 7 1021.3 - 0.2 - - 10 - - - -
17/12:00pm 26.8 S 3 6 1021.8 - 0.2 - - 10 - - - -
17/11:30am 26.4 WSW 5 8 1022.5 - 0.2 - Partly cloudy 10 - - - -
17/11:00am 25.3 SW 6 8 1022.9 - 0.2 - Partly cloudy 10 - - - -
17/10:30am 24.5 SW 7 10 1023.2 - 0.2 - Partly cloudy 10 - - - -
17/10:00am 24.7 WNW 6 10 1023.5 - 0.0 - Partly cloudy 10 - - - -
17/09:30am 23.7 W 7 9 1023.9 - 0.0 - - 10 - - - -
17/09:00am 23.3 WNW 7 8 1024.1 - 0.0 - - 10 - - - -
17/08:30am 21.7 WNW 6 8 1023.9 - 0.0 - - 10 - - - -
17/08:00am 20.4 WNW 6 8 1023.6 - 0.0 - - 10 - - - -
17/07:30am 19.4 NW 7 8 1023.5 - 0.0 - Partly cloudy 10 - - - -

Other Formats:

Comma delimited format used in spreadsheet applications
http://www.bom.gov.au/fwo/IDN60701/IDN60701.95784.axf

JavaScript Object Notation format (JSON) in row-major order
http://www.bom.gov.au/fwo/IDN60701/IDN60701.95784.json